sensor_id;sensor_type;location;lat;lon;timestamp;pressure;altitude;pressure_sealevel;temperature;humidity
62544;BME280;48597;49.030;1.822;2022-08-16T00:00:12;99994.94;;;26.29;48.19
62544;BME280;48597;49.030;1.822;2022-08-16T00:02:38;100005.94;;;26.28;48.13
62544;BME280;48597;49.030;1.822;2022-08-16T00:05:05;100011.13;;;26.29;48.00
62544;BME280;48597;49.030;1.822;2022-08-16T00:07:33;100004.88;;;26.29;48.03
62544;BME280;48597;49.030;1.822;2022-08-16T00:09:59;100005.94;;;26.28;47.83
62544;BME280;48597;49.030;1.822;2022-08-16T00:12:27;100009.47;;;26.28;47.93
62544;BME280;48597;49.030;1.822;2022-08-16T00:14:55;100009.69;;;26.27;47.90
62544;BME280;48597;49.030;1.822;2022-08-16T00:17:20;100019.66;;;26.26;47.90
62544;BME280;48597;49.030;1.822;2022-08-16T00:19:46;100024.22;;;26.26;47.95
62544;BME280;48597;49.030;1.822;2022-08-16T00:22:12;100019.66;;;26.26;48.16
62544;BME280;48597;49.030;1.822;2022-08-16T00:24:37;100019.84;;;26.25;47.88
62544;BME280;48597;49.030;1.822;2022-08-16T00:27:03;100020.88;;;26.24;48.02
62544;BME280;48597;49.030;1.822;2022-08-16T00:29:29;100017.38;;;26.23;47.95
62544;BME280;48597;49.030;1.822;2022-08-16T00:31:55;100007.41;;;26.24;48.08
62544;BME280;48597;49.030;1.822;2022-08-16T00:34:21;100004.94;;;26.22;47.98
62544;BME280;48597;49.030;1.822;2022-08-16T00:36:47;100002.22;;;26.22;47.93
62544;BME280;48597;49.030;1.822;2022-08-16T00:39:14;100001.41;;;26.22;47.98
62544;BME280;48597;49.030;1.822;2022-08-16T00:41:41;100005.94;;;26.21;47.99
62544;BME280;48597;49.030;1.822;2022-08-16T00:44:07;100000.56;;;26.21;48.21
62544;BME280;48597;49.030;1.822;2022-08-16T00:46:44;99998.72;;;26.22;48.13
62544;BME280;48597;49.030;1.822;2022-08-16T00:49:12;99997.66;;;26.23;48.00
62544;BME280;48597;49.030;1.822;2022-08-16T00:51:38;100000.34;;;26.23;48.10
62544;BME280;48597;49.030;1.822;2022-08-16T00:54:04;100005.75;;;26.23;47.86
62544;BME280;48597;49.030;1.822;2022-08-16T00:56:33;99996.00;;;26.22;47.85
62544;BME280;48597;49.030;1.822;2022-08-16T00:59:00;100003.06;;;26.23;47.89
62544;BME280;48597;49.030;1.822;2022-08-16T01:01:26;100006.81;;;26.22;47.86
62544;BME280;48597;49.030;1.822;2022-08-16T01:03:53;100006.16;;;26.19;47.83
62544;BME280;48597;49.030;1.822;2022-08-16T01:06:19;100006.59;;;26.16;47.93
62544;BME280;48597;49.030;1.822;2022-08-16T01:08:48;100014.47;;;26.18;47.91
62544;BME280;48597;49.030;1.822;2022-08-16T01:11:15;100011.97;;;26.16;48.13
62544;BME280;48597;49.030;1.822;2022-08-16T01:13:42;100007.41;;;26.17;47.95
62544;BME280;48597;49.030;1.822;2022-08-16T01:16:16;99997.91;;;26.14;47.91
62544;BME280;48597;49.030;1.822;2022-08-16T01:18:46;99995.19;;;26.14;47.87
62544;BME280;48597;49.030;1.822;2022-08-16T01:26:34;99996.25;;;26.13;47.81
62544;BME280;48597;49.030;1.822;2022-08-16T01:29:04;99991.88;;;26.12;48.04
62544;BME280;48597;49.030;1.822;2022-08-16T01:31:30;99991.88;;;26.12;47.75
62544;BME280;48597;49.030;1.822;2022-08-16T01:33:56;99984.84;;;26.11;47.99
62544;BME280;48597;49.030;1.822;2022-08-16T01:36:22;99992.91;;;26.11;47.83
62544;BME280;48597;49.030;1.822;2022-08-16T01:38:48;100002.88;;;26.11;47.83
62544;BME280;48597;49.030;1.822;2022-08-16T01:41:18;100002.06;;;26.10;47.80
62544;BME280;48597;49.030;1.822;2022-08-16T01:43:46;100006.81;;;26.08;47.86
62544;BME280;48597;49.030;1.822;2022-08-16T01:46:26;100013.84;;;26.09;47.71
62544;BME280;48597;49.030;1.822;2022-08-16T01:48:59;100013.25;;;26.07;47.68
62544;BME280;48597;49.030;1.822;2022-08-16T01:51:26;100023.22;;;26.07;47.73
62544;BME280;48597;49.030;1.822;2022-08-16T01:53:52;100011.59;;;26.06;47.64
62544;BME280;48597;49.030;1.822;2022-08-16T01:56:19;100011.59;;;26.06;47.80
62544;BME280;48597;49.030;1.822;2022-08-16T01:58:45;100003.72;;;26.05;47.93
62544;BME280;48597;49.030;1.822;2022-08-16T02:01:10;99994.78;;;26.04;47.69
62544;BME280;48597;49.030;1.822;2022-08-16T02:03:36;99988.59;;;26.04;47.75
62544;BME280;48597;49.030;1.822;2022-08-16T02:06:02;99985.06;;;26.03;47.61
62544;BME280;48597;49.030;1.822;2022-08-16T02:08:27;99988.81;;;26.02;47.64
62544;BME280;48597;49.030;1.822;2022-08-16T02:10:53;99992.31;;;26.03;47.77
62544;BME280;48597;49.030;1.822;2022-08-16T02:13:19;99992.31;;;26.03;47.85
62544;BME280;48597;49.030;1.822;2022-08-16T02:15:45;99987.97;;;26.02;47.91
62544;BME280;48597;49.030;1.822;2022-08-16T02:18:11;99974.50;;;26.02;47.71
62544;BME280;48597;49.030;1.822;2022-08-16T02:20:38;99980.09;;;26.00;47.77
62544;BME280;48597;49.030;1.822;2022-08-16T02:23:04;99972.22;;;25.99;47.70
62544;BME280;48597;49.030;1.822;2022-08-16T02:25:30;99967.66;;;25.99;47.67
62544;BME280;48597;49.030;1.822;2022-08-16T02:27:56;99964.97;;;25.99;47.57
62544;BME280;48597;49.030;1.822;2022-08-16T02:30:28;99956.88;;;25.99;47.63
62544;BME280;48597;49.030;1.822;2022-08-16T02:32:54;99948.16;;;25.97;47.85
62544;BME280;48597;49.030;1.822;2022-08-16T02:35:20;99958.94;;;25.97;47.58
62544;BME280;48597;49.030;1.822;2022-08-16T02:37:46;99964.31;;;25.97;47.46
62544;BME280;48597;49.030;1.822;2022-08-16T02:40:13;99956.25;;;25.97;47.57
62544;BME280;48597;49.030;1.822;2022-08-16T02:42:42;99952.72;;;25.97;47.54
62544;BME280;48597;49.030;1.822;2022-08-16T02:45:07;99955.63;;;25.95;47.67
62544;BME280;48597;49.030;1.822;2022-08-16T02:47:33;99945.69;;;25.95;47.46
62544;BME280;48597;49.030;1.822;2022-08-16T02:49:58;99939.66;;;25.93;47.52
62544;BME280;48597;49.030;1.822;2022-08-16T02:52:23;99934.25;;;25.93;47.60
62544;BME280;48597;49.030;1.822;2022-08-16T02:54:49;99940.50;;;25.94;47.36
62544;BME280;48597;49.030;1.822;2022-08-16T02:57:14;99930.16;;;25.91;47.65
62544;BME280;48597;49.030;1.822;2022-08-16T02:59:40;99932.63;;;25.92;47.48
62544;BME280;48597;49.030;1.822;2022-08-16T03:02:07;99935.31;;;25.92;47.52
62544;BME280;48597;49.030;1.822;2022-08-16T03:04:34;99926.63;;;25.90;47.44
62544;BME280;48597;49.030;1.822;2022-08-16T03:07:00;99934.91;;;25.89;47.49
62544;BME280;48597;49.030;1.822;2022-08-16T03:09:25;99937.41;;;25.90;47.64
62544;BME280;48597;49.030;1.822;2022-08-16T03:11:50;99938.66;;;25.88;47.53
62544;BME280;48597;49.030;1.822;2022-08-16T03:14:16;99940.28;;;25.89;47.63
62544;BME280;48597;49.030;1.822;2022-08-16T03:16:41;99943.00;;;25.89;47.44
62544;BME280;48597;49.030;1.822;2022-08-16T03:19:07;99951.06;;;25.89;47.59
62544;BME280;48597;49.030;1.822;2022-08-16T03:21:34;99961.44;;;25.85;47.33
62544;BME280;48597;49.030;1.822;2022-08-16T03:23:59;99957.75;;;25.86;47.47
62544;BME280;48597;49.030;1.822;2022-08-16T03:26:25;99963.31;;;25.85;47.63
62544;BME280;48597;49.030;1.822;2022-08-16T03:28:50;99957.94;;;25.85;47.61
62544;BME280;48597;49.030;1.822;2022-08-16T03:31:15;99955.25;;;25.85;47.47
62544;BME280;48597;49.030;1.822;2022-08-16T03:33:41;99947.16;;;25.85;47.38
62544;BME280;48597;49.030;1.822;2022-08-16T03:36:07;99948.19;;;25.84;47.33
62544;BME280;48597;49.030;1.822;2022-08-16T03:38:33;99950.25;;;25.82;47.56
62544;BME280;48597;49.030;1.822;2022-08-16T03:40:59;99962.72;;;25.83;47.42
62544;BME280;48597;49.030;1.822;2022-08-16T03:43:26;99968.09;;;25.83;47.72
62544;BME280;48597;49.030;1.822;2022-08-16T03:45:54;99964.78;;;25.81;47.63
62544;BME280;48597;49.030;1.822;2022-08-16T03:48:23;99970.59;;;25.84;47.44
62544;BME280;48597;49.030;1.822;2022-08-16T03:50:49;99973.28;;;25.84;47.23
62544;BME280;48597;49.030;1.822;2022-08-16T03:53:14;99967.28;;;25.82;47.28
62544;BME280;48597;49.030;1.822;2022-08-16T03:55:40;99969.13;;;25.82;47.18
62544;BME280;48597;49.030;1.822;2022-08-16T03:58:06;99967.47;;;25.81;46.98
62544;BME280;48597;49.030;1.822;2022-08-16T04:00:31;99956.25;;;25.77;47.17
62544;BME280;48597;49.030;1.822;2022-08-16T04:02:59;99957.13;;;25.78;47.21
62544;BME280;48597;49.030;1.822;2022-08-16T04:05:34;99960.66;;;25.78;47.45
62544;BME280;48597;49.030;1.822;2022-08-16T04:08:01;99966.22;;;25.77;47.29
62544;BME280;48597;49.030;1.822;2022-08-16T04:10:26;99968.91;;;25.77;47.53
62544;BME280;48597;49.030;1.822;2022-08-16T04:12:52;99966.22;;;25.77;47.37
62544;BME280;48597;49.030;1.822;2022-08-16T04:15:17;99967.25;;;25.76;47.43
62544;BME280;48597;49.030;1.822;2022-08-16T04:17:43;99968.31;;;25.75;47.61
62544;BME280;48597;49.030;1.822;2022-08-16T04:20:10;99965.59;;;25.75;47.49
62544;BME280;48597;49.030;1.822;2022-08-16T04:22:37;99956.66;;;25.74;47.59
62544;BME280;48597;49.030;1.822;2022-08-16T04:25:04;99952.31;;;25.73;47.48
62544;BME280;48597;49.030;1.822;2022-08-16T04:27:31;99943.63;;;25.71;47.39
62544;BME280;48597;49.030;1.822;2022-08-16T04:29:56;99957.94;;;25.71;47.63
62544;BME280;48597;49.030;1.822;2022-08-16T04:32:22;99964.38;;;25.70;47.47
62544;BME280;48597;49.030;1.822;2022-08-16T04:34:47;99965.19;;;25.71;47.48
62544;BME280;48597;49.030;1.822;2022-08-16T04:37:13;99977.84;;;25.70;47.43
62544;BME280;48597;49.030;1.822;2022-08-16T04:39:38;99978.88;;;25.69;47.60
62544;BME280;48597;49.030;1.822;2022-08-16T04:42:04;99983.22;;;25.70;47.55
62544;BME280;48597;49.030;1.822;2022-08-16T04:44:30;99973.47;;;25.69;47.62
62544;BME280;48597;49.030;1.822;2022-08-16T04:46:55;99973.47;;;25.69;47.47
62544;BME280;48597;49.030;1.822;2022-08-16T04:49:22;99979.69;;;25.70;47.50
62544;BME280;48597;49.030;1.822;2022-08-16T04:51:48;99989.84;;;25.68;47.69
62544;BME280;48597;49.030;1.822;2022-08-16T04:54:13;99987.16;;;25.68;47.45
62544;BME280;48597;49.030;1.822;2022-08-16T04:56:39;99978.25;;;25.67;47.72
62544;BME280;48597;49.030;1.822;2022-08-16T04:59:05;99980.94;;;25.67;47.56
62544;BME280;48597;49.030;1.822;2022-08-16T05:01:33;99984.69;;;25.66;47.45
62544;BME280;48597;49.030;1.822;2022-08-16T05:03:59;99985.53;;;25.67;47.55
62544;BME280;48597;49.030;1.822;2022-08-16T05:06:24;99987.56;;;25.65;47.64
62544;BME280;48597;49.030;1.822;2022-08-16T05:08:49;99991.91;;;25.66;47.83
62544;BME280;48597;49.030;1.822;2022-08-16T05:11:16;99995.66;;;25.65;47.70
62544;BME280;48597;49.030;1.822;2022-08-16T05:13:44;99998.34;;;25.65;47.76
62544;BME280;48597;49.030;1.822;2022-08-16T05:16:15;100003.75;;;25.65;47.77
62544;BME280;48597;49.030;1.822;2022-08-16T05:18:42;100001.28;;;25.63;47.77
62544;BME280;48597;49.030;1.822;2022-08-16T05:21:07;100001.28;;;25.63;47.66
62544;BME280;48597;49.030;1.822;2022-08-16T05:23:33;99999.63;;;25.62;47.66
62544;BME280;48597;49.030;1.822;2022-08-16T05:25:58;99997.75;;;25.63;47.70
62544;BME280;48597;49.030;1.822;2022-08-16T05:28:25;99996.06;;;25.62;47.83
62544;BME280;48597;49.030;1.822;2022-08-16T05:30:51;99995.25;;;25.61;47.69
62544;BME280;48597;49.030;1.822;2022-08-16T05:33:17;99997.13;;;25.61;47.67
62544;BME280;48597;49.030;1.822;2022-08-16T05:35:43;100001.69;;;25.60;47.67
62544;BME280;48597;49.030;1.822;2022-08-16T05:38:09;100003.31;;;25.61;47.95
62544;BME280;48597;49.030;1.822;2022-08-16T05:40:34;100001.69;;;25.60;47.63
62544;BME280;48597;49.030;1.822;2022-08-16T05:43:00;100000.22;;;25.58;47.75
62544;BME280;48597;49.030;1.822;2022-08-16T05:45:25;100009.97;;;25.59;47.63
62544;BME280;48597;49.030;1.822;2022-08-16T05:47:51;100011.41;;;25.61;47.83
62544;BME280;48597;49.030;1.822;2022-08-16T05:50:16;100010.41;;;25.62;47.38
62544;BME280;48597;49.030;1.822;2022-08-16T05:52:41;100013.91;;;25.63;47.26
62544;BME280;48597;49.030;1.822;2022-08-16T05:55:07;100010.19;;;25.64;47.16
62544;BME280;48597;49.030;1.822;2022-08-16T05:57:33;100011.41;;;25.61;47.03
62544;BME280;48597;49.030;1.822;2022-08-16T05:59:58;100014.09;;;25.61;47.00
62544;BME280;48597;49.030;1.822;2022-08-16T06:02:24;100017.84;;;25.60;47.01
62544;BME280;48597;49.030;1.822;2022-08-16T06:04:51;100017.84;;;25.60;46.97
62544;BME280;48597;49.030;1.822;2022-08-16T06:07:17;100030.50;;;25.60;46.96
62544;BME280;48597;49.030;1.822;2022-08-16T06:09:42;100021.59;;;25.59;46.82
62544;BME280;48597;49.030;1.822;2022-08-16T06:12:08;100030.69;;;25.58;46.80
62544;BME280;48597;49.030;1.822;2022-08-16T06:14:33;100031.53;;;25.59;47.60
62544;BME280;48597;49.030;1.822;2022-08-16T06:16:59;100039.63;;;25.59;47.89
62544;BME280;48597;49.030;1.822;2022-08-16T06:19:24;100038.97;;;25.57;48.11
62544;BME280;48597;49.030;1.822;2022-08-16T06:21:50;100042.72;;;25.56;48.19
62544;BME280;48597;49.030;1.822;2022-08-16T06:24:15;100032.97;;;25.55;48.27
62544;BME280;48597;49.030;1.822;2022-08-16T06:26:40;100037.53;;;25.54;48.68
62544;BME280;48597;49.030;1.822;2022-08-16T06:29:06;100042.31;;;25.52;48.67
62544;BME280;48597;49.030;1.822;2022-08-16T06:31:31;100035.25;;;25.51;49.04
62544;BME280;48597;49.030;1.822;2022-08-16T06:33:57;100028.19;;;25.50;49.29
62544;BME280;48597;49.030;1.822;2022-08-16T06:36:23;100028.19;;;25.50;49.49
62544;BME280;48597;49.030;1.822;2022-08-16T06:38:51;100031.94;;;25.49;49.47
62544;BME280;48597;49.030;1.822;2022-08-16T06:41:17;100033.81;;;25.49;49.51
62544;BME280;48597;49.030;1.822;2022-08-16T06:43:43;100036.72;;;25.47;49.18
62544;BME280;48597;49.030;1.822;2022-08-16T06:46:21;100040.22;;;25.48;49.04
62544;BME280;48597;49.030;1.822;2022-08-16T06:48:47;100038.16;;;25.43;49.01
62544;BME280;48597;49.030;1.822;2022-08-16T06:51:13;100051.41;;;25.44;49.03
62544;BME280;48597;49.030;1.822;2022-08-16T06:53:38;100037.13;;;25.44;48.76
62544;BME280;48597;49.030;1.822;2022-08-16T06:56:05;100040.84;;;25.43;48.94
62544;BME280;48597;49.030;1.822;2022-08-16T06:58:32;100039.19;;;25.42;48.80
62544;BME280;48597;49.030;1.822;2022-08-16T07:01:00;100040.22;;;25.41;48.59
62544;BME280;48597;49.030;1.822;2022-08-16T07:03:26;100034.22;;;25.39;48.89
62544;BME280;48597;49.030;1.822;2022-08-16T07:05:52;100032.53;;;25.38;49.28
62544;BME280;48597;49.030;1.822;2022-08-16T07:08:17;100033.59;;;25.37;48.78
62544;BME280;48597;49.030;1.822;2022-08-16T07:10:42;100034.63;;;25.36;48.99
62544;BME280;48597;49.030;1.822;2022-08-16T07:13:08;100044.56;;;25.35;49.19
62544;BME280;48597;49.030;1.822;2022-08-16T07:15:34;100047.06;;;25.37;49.37
62544;BME280;48597;49.030;1.822;2022-08-16T07:18:00;100045.41;;;25.36;49.33
62544;BME280;48597;49.030;1.822;2022-08-16T07:20:25;100048.91;;;25.36;48.76
62544;BME280;48597;49.030;1.822;2022-08-16T07:22:52;100053.47;;;25.36;49.24
62544;BME280;48597;49.030;1.822;2022-08-16T07:25:20;100043.53;;;25.36;49.32
62544;BME280;48597;49.030;1.822;2022-08-16T07:27:45;100047.06;;;25.37;49.22
62544;BME280;48597;49.030;1.822;2022-08-16T07:30:13;100045.41;;;25.36;49.01
62544;BME280;48597;49.030;1.822;2022-08-16T07:32:39;100045.41;;;25.36;49.35
62544;BME280;48597;49.030;1.822;2022-08-16T07:35:05;100054.31;;;25.36;49.54
62544;BME280;48597;49.030;1.822;2022-08-16T07:37:31;100054.31;;;25.36;48.98
62544;BME280;48597;49.030;1.822;2022-08-16T07:39:56;100056.78;;;25.38;48.83
62544;BME280;48597;49.030;1.822;2022-08-16T07:42:21;100058.47;;;25.39;49.07
62544;BME280;48597;49.030;1.822;2022-08-16T07:44:47;100061.16;;;25.39;49.47
62544;BME280;48597;49.030;1.822;2022-08-16T07:47:13;100058.47;;;25.39;49.25
62544;BME280;48597;49.030;1.822;2022-08-16T07:49:38;100057.59;;;25.38;49.41
62544;BME280;48597;49.030;1.822;2022-08-16T07:52:04;100057.59;;;25.38;48.96
62544;BME280;48597;49.030;1.822;2022-08-16T07:54:29;100057.59;;;25.38;48.75
62544;BME280;48597;49.030;1.822;2022-08-16T07:56:55;100061.16;;;25.39;48.58
62544;BME280;48597;49.030;1.822;2022-08-16T07:59:20;100059.28;;;25.39;48.81
62544;BME280;48597;49.030;1.822;2022-08-16T08:01:45;100062.81;;;25.40;46.86
62544;BME280;48597;49.030;1.822;2022-08-16T08:04:11;100069.25;;;25.39;46.51
62544;BME280;48597;49.030;1.822;2022-08-16T08:06:39;100071.06;;;25.38;47.29
62544;BME280;48597;49.030;1.822;2022-08-16T08:09:05;100065.91;;;25.37;47.16
62544;BME280;48597;49.030;1.822;2022-08-16T08:11:30;100064.84;;;25.38;47.60
62544;BME280;48597;49.030;1.822;2022-08-16T08:13:57;100064.84;;;25.38;47.75
62544;BME280;48597;49.030;1.822;2022-08-16T08:16:25;100065.69;;;25.38;47.95
62544;BME280;48597;49.030;1.822;2022-08-16T08:18:51;100070.88;;;25.40;47.64
62544;BME280;48597;49.030;1.822;2022-08-16T08:21:19;100069.44;;;25.44;48.08
62544;BME280;48597;49.030;1.822;2022-08-16T08:23:45;100061.34;;;25.44;47.80
62544;BME280;48597;49.030;1.822;2022-08-16T08:26:12;100060.31;;;25.45;47.71
62544;BME280;48597;49.030;1.822;2022-08-16T08:28:37;100059.28;;;25.46;47.91
62544;BME280;48597;49.030;1.822;2022-08-16T08:31:03;100061.97;;;25.46;47.61
62544;BME280;48597;49.030;1.822;2022-08-16T08:33:30;100070.03;;;25.46;47.69
62544;BME280;48597;49.030;1.822;2022-08-16T08:35:58;100066.53;;;25.45;47.47
62544;BME280;48597;49.030;1.822;2022-08-16T08:38:23;100067.16;;;25.48;47.34
62544;BME280;48597;49.030;1.822;2022-08-16T08:40:50;100072.56;;;25.48;47.02
62544;BME280;48597;49.030;1.822;2022-08-16T08:43:16;100084.16;;;25.48;47.55
62544;BME280;48597;49.030;1.822;2022-08-16T08:45:41;100080.41;;;25.49;47.59
62544;BME280;48597;49.030;1.822;2022-08-16T08:48:07;100074.22;;;25.49;47.33
62544;BME280;48597;49.030;1.822;2022-08-16T08:50:33;100076.69;;;25.50;47.62
62544;BME280;48597;49.030;1.822;2022-08-16T08:52:58;100082.28;;;25.49;47.74
62544;BME280;48597;49.030;1.822;2022-08-16T08:55:25;100078.38;;;25.51;47.83
62544;BME280;48597;49.030;1.822;2022-08-16T08:57:52;100089.75;;;25.53;46.96
62544;BME280;48597;49.030;1.822;2022-08-16T09:00:20;100078.38;;;25.51;47.32
62544;BME280;48597;49.030;1.822;2022-08-16T09:02:48;100080.03;;;25.52;47.53
62544;BME280;48597;49.030;1.822;2022-08-16T09:05:14;100089.97;;;25.52;47.47
62544;BME280;48597;49.030;1.822;2022-08-16T09:07:39;100094.09;;;25.54;47.53
62544;BME280;48597;49.030;1.822;2022-08-16T09:10:06;100090.38;;;25.55;47.44
62544;BME280;48597;49.030;1.822;2022-08-16T09:12:32;100090.38;;;25.55;47.58
62544;BME280;48597;49.030;1.822;2022-08-16T09:14:58;100099.91;;;25.58;47.07
62544;BME280;48597;49.030;1.822;2022-08-16T09:17:24;100090.81;;;25.59;47.02
62544;BME280;48597;49.030;1.822;2022-08-16T09:19:50;100104.28;;;25.59;47.09
62544;BME280;48597;49.030;1.822;2022-08-16T09:22:16;100101.59;;;25.59;47.18
62544;BME280;48597;49.030;1.822;2022-08-16T09:24:43;100102.19;;;25.61;46.99
62544;BME280;48597;49.030;1.822;2022-08-16T09:27:08;100108.41;;;25.61;46.88
62544;BME280;48597;49.030;1.822;2022-08-16T09:29:33;100103.66;;;25.63;47.20
62544;BME280;48597;49.030;1.822;2022-08-16T09:31:59;100105.53;;;25.63;47.03
62544;BME280;48597;49.030;1.822;2022-08-16T09:34:24;100108.00;;;25.64;47.15
62544;BME280;48597;49.030;1.822;2022-08-16T09:36:50;100120.44;;;25.65;47.10
62544;BME280;48597;49.030;1.822;2022-08-16T09:39:15;100120.44;;;25.65;47.22
62544;BME280;48597;49.030;1.822;2022-08-16T09:41:43;100120.44;;;25.65;47.62
62544;BME280;48597;49.030;1.822;2022-08-16T09:44:09;100131.84;;;25.67;47.37
62544;BME280;48597;49.030;1.822;2022-08-16T09:46:34;100135.59;;;25.66;47.54
62544;BME280;48597;49.030;1.822;2022-08-16T09:49:00;100132.91;;;25.66;47.42
62544;BME280;48597;49.030;1.822;2022-08-16T09:51:25;100137.25;;;25.67;47.86
62544;BME280;48597;49.030;1.822;2022-08-16T09:53:53;100133.72;;;25.67;47.77
62544;BME280;48597;49.030;1.822;2022-08-16T09:56:28;100125.41;;;25.68;47.71
62544;BME280;48597;49.030;1.822;2022-08-16T09:58:56;100126.06;;;25.70;48.05
62544;BME280;48597;49.030;1.822;2022-08-16T10:01:22;100112.59;;;25.70;47.90
62544;BME280;48597;49.030;1.822;2022-08-16T10:03:49;100122.31;;;25.71;48.04
62544;BME280;48597;49.030;1.822;2022-08-16T10:06:17;100115.06;;;25.72;48.04
62544;BME280;48597;49.030;1.822;2022-08-16T10:08:43;100123.97;;;25.73;48.27
62544;BME280;48597;49.030;1.822;2022-08-16T10:11:09;100127.31;;;25.75;48.55
62544;BME280;48597;49.030;1.822;2022-08-16T10:13:53;100130.59;;;25.77;48.71
62544;BME280;48597;49.030;1.822;2022-08-16T10:16:20;100128.97;;;25.76;48.80
62544;BME280;48597;49.030;1.822;2022-08-16T10:18:45;100134.13;;;25.77;49.03
62544;BME280;48597;49.030;1.822;2022-08-16T10:21:11;100132.09;;;25.79;49.04
62544;BME280;48597;49.030;1.822;2022-08-16T10:23:40;100132.09;;;25.79;48.73
62544;BME280;48597;49.030;1.822;2022-08-16T10:26:05;100137.50;;;25.79;48.59
62544;BME280;48597;49.030;1.822;2022-08-16T10:28:30;100128.59;;;25.79;48.64
62544;BME280;48597;49.030;1.822;2022-08-16T10:31:00;100129.41;;;25.79;48.59
62544;BME280;48597;49.030;1.822;2022-08-16T10:33:27;100131.88;;;25.81;48.29
62544;BME280;48597;49.030;1.822;2022-08-16T10:35:52;100123.81;;;25.81;48.28
62544;BME280;48597;49.030;1.822;2022-08-16T10:38:18;100128.16;;;25.82;48.30
62544;BME280;48597;49.030;1.822;2022-08-16T10:40:44;100123.63;;;25.82;48.03
62544;BME280;48597;49.030;1.822;2022-08-16T10:43:11;100119.88;;;25.83;48.02
62544;BME280;48597;49.030;1.822;2022-08-16T10:45:37;100111.56;;;25.85;47.79
62544;BME280;48597;49.030;1.822;2022-08-16T10:48:11;100104.13;;;25.87;47.67
62544;BME280;48597;49.030;1.822;2022-08-16T10:50:37;100110.53;;;25.86;47.54
62544;BME280;48597;49.030;1.822;2022-08-16T10:53:02;100108.06;;;25.91;47.57
62544;BME280;48597;49.030;1.822;2022-08-16T10:55:36;100107.00;;;25.92;47.25
62544;BME280;48597;49.030;1.822;2022-08-16T10:58:06;100115.75;;;25.94;47.02
62544;BME280;48597;49.030;1.822;2022-08-16T11:00:33;100113.03;;;25.94;47.27
62544;BME280;48597;49.030;1.822;2022-08-16T11:03:00;100112.59;;;25.97;47.19
62544;BME280;48597;49.030;1.822;2022-08-16T11:05:29;100106.19;;;25.98;47.13
62544;BME280;48597;49.030;1.822;2022-08-16T11:07:56;100118.63;;;25.99;46.74
62544;BME280;48597;49.030;1.822;2022-08-16T11:10:31;100124.63;;;26.01;46.69
62544;BME280;48597;49.030;1.822;2022-08-16T11:12:57;100123.63;;;26.02;47.00
62544;BME280;48597;49.030;1.822;2022-08-16T11:15:23;100130.03;;;26.01;47.02
62544;BME280;48597;49.030;1.822;2022-08-16T11:17:50;100126.50;;;26.01;47.02
62544;BME280;48597;49.030;1.822;2022-08-16T11:20:16;100125.25;;;26.03;46.99
62544;BME280;48597;49.030;1.822;2022-08-16T11:22:42;100126.31;;;26.02;46.87
62544;BME280;48597;49.030;1.822;2022-08-16T11:25:09;100123.41;;;26.04;46.85
62544;BME280;48597;49.030;1.822;2022-08-16T11:27:34;100118.00;;;26.04;46.75
62544;BME280;48597;49.030;1.822;2022-08-16T11:30:00;100115.31;;;26.04;46.89
62544;BME280;48597;49.030;1.822;2022-08-16T11:32:27;100109.91;;;26.04;46.62
62544;BME280;48597;49.030;1.822;2022-08-16T11:34:53;100114.06;;;26.06;46.76
62544;BME280;48597;49.030;1.822;2022-08-16T11:37:20;100119.47;;;26.06;46.60
62544;BME280;48597;49.030;1.822;2022-08-16T11:39:46;100127.56;;;26.06;46.57
62544;BME280;48597;49.030;1.822;2022-08-16T11:42:11;100132.94;;;26.06;46.53
62544;BME280;48597;49.030;1.822;2022-08-16T11:44:36;100130.03;;;26.08;46.29
62544;BME280;48597;49.030;1.822;2022-08-16T11:47:02;100132.31;;;26.11;46.42
62544;BME280;48597;49.030;1.822;2022-08-16T11:49:27;100140.19;;;26.12;46.48
62544;BME280;48597;49.030;1.822;2022-08-16T11:51:53;100148.28;;;26.12;46.43
62544;BME280;48597;49.030;1.822;2022-08-16T11:54:18;100151.78;;;26.13;46.27
62544;BME280;48597;49.030;1.822;2022-08-16T11:56:43;100156.16;;;26.14;46.39
62544;BME280;48597;49.030;1.822;2022-08-16T11:59:09;100157.19;;;26.13;46.53
62544;BME280;48597;49.030;1.822;2022-08-16T12:01:35;100145.56;;;26.12;46.35
62544;BME280;48597;49.030;1.822;2022-08-16T12:04:00;100151.78;;;26.13;46.28
62544;BME280;48597;49.030;1.822;2022-08-16T12:06:26;100152.00;;;26.11;46.26
62544;BME280;48597;49.030;1.822;2022-08-16T12:08:53;100158.22;;;26.12;46.49
62544;BME280;48597;49.030;1.822;2022-08-16T12:11:22;100156.59;;;26.11;46.31
62544;BME280;48597;49.030;1.822;2022-08-16T12:13:50;100163.63;;;26.12;46.44
62544;BME280;48597;49.030;1.822;2022-08-16T12:16:15;100160.94;;;26.12;46.37
62544;BME280;48597;49.030;1.822;2022-08-16T12:18:43;100158.22;;;26.12;46.22
62544;BME280;48597;49.030;1.822;2022-08-16T12:21:09;100155.53;;;26.12;46.35
62544;BME280;48597;49.030;1.822;2022-08-16T12:23:34;100150.16;;;26.12;46.16
62544;BME280;48597;49.030;1.822;2022-08-16T12:26:00;100152.00;;;26.11;46.21
62544;BME280;48597;49.030;1.822;2022-08-16T12:28:26;100149.31;;;26.11;46.02
62544;BME280;48597;49.030;1.822;2022-08-16T12:30:51;100147.66;;;26.10;46.24
62544;BME280;48597;49.030;1.822;2022-08-16T12:33:17;100146.84;;;26.10;46.20
62544;BME280;48597;49.030;1.822;2022-08-16T12:35:46;100148.28;;;26.12;46.11
62544;BME280;48597;49.030;1.822;2022-08-16T12:38:12;100151.78;;;26.13;46.14
62544;BME280;48597;49.030;1.822;2022-08-16T12:40:41;100151.78;;;26.13;46.52
62544;BME280;48597;49.030;1.822;2022-08-16T12:43:10;100150.16;;;26.12;46.66
62544;BME280;48597;49.030;1.822;2022-08-16T12:45:39;100145.97;;;26.09;46.99
62544;BME280;48597;49.030;1.822;2022-08-16T12:48:06;100136.88;;;26.10;47.16
62544;BME280;48597;49.030;1.822;2022-08-16T12:50:50;100128.16;;;26.08;47.27
62544;BME280;48597;49.030;1.822;2022-08-16T12:53:17;100119.25;;;26.08;47.37